createdAt,value
2022-11-25T00:00:40.739Z,99985.69
2022-11-25T00:03:28.493Z,99974.22
2022-11-25T00:06:22.149Z,99953.03
2022-11-25T00:09:13.450Z,99965.84
2022-11-25T00:12:01.208Z,99985.47
2022-11-25T00:14:48.908Z,99980.06
2022-11-25T00:17:36.684Z,99998.50
2022-11-25T00:20:24.440Z,99996.06
2022-11-25T00:23:12.023Z,99991.72
2022-11-25T00:26:07.007Z,99995.50
2022-11-25T00:28:55.120Z,100005.69
2022-11-25T00:31:43.076Z,100001.19
2022-11-25T00:34:31.349Z,99997.06
2022-11-25T00:37:19.062Z,100001.75
2022-11-25T00:40:07.429Z,99973.16
2022-11-25T00:43:13.428Z,99998.84
2022-11-25T00:46:01.130Z,100003.00
2022-11-25T00:48:48.887Z,100000.38
2022-11-25T00:51:36.590Z,99992.00
2022-11-25T00:54:24.351Z,99987.72
2022-11-25T00:57:12.991Z,99993.28
2022-11-25T01:00:00.642Z,100003.25
2022-11-25T01:02:48.623Z,99975.00
2022-11-25T01:05:36.414Z,100011.47
2022-11-25T01:08:24.139Z,99985.69
2022-11-25T01:11:17.599Z,100002.47
2022-11-25T01:14:05.596Z,99990.53
2022-11-25T01:16:53.395Z,100003.28
2022-11-25T01:19:42.203Z,100008.34
2022-11-25T01:22:29.896Z,99994.25
2022-11-25T01:25:17.596Z,100001.25
2022-11-25T01:28:05.690Z,99978.34
2022-11-25T01:31:04.612Z,100008.66
2022-11-25T01:34:00.827Z,99999.88
2022-11-25T01:36:48.773Z,99988.13
2022-11-25T01:39:38.992Z,99995.56
2022-11-25T01:42:30.030Z,99995.56
2022-11-25T01:45:33.514Z,99988.75
2022-11-25T01:48:29.322Z,99996.78
2022-11-25T01:51:28.335Z,100006.84
2022-11-25T01:54:21.844Z,100005.31
2022-11-25T01:57:17.904Z,99984.47
2022-11-25T02:00:08.096Z,100005.44
2022-11-25T02:03:05.377Z,99985.28
2022-11-25T02:05:52.890Z,100012.13
2022-11-25T02:08:42.303Z,99996.69
2022-11-25T02:11:31.273Z,100011.22
2022-11-25T02:14:21.731Z,100005.22
2022-11-25T02:17:09.415Z,100018.66
2022-11-25T02:20:10.856Z,100023.88
2022-11-25T02:23:12.621Z,100032.44
2022-11-25T02:26:00.865Z,100009.25
2022-11-25T02:28:49.125Z,100012.22
2022-11-25T02:31:37.785Z,100036.31
2022-11-25T02:34:25.750Z,100032.31
2022-11-25T02:37:14.207Z,100033.91
2022-11-25T02:40:02.952Z,99991.06
2022-11-25T02:42:51.314Z,100031.50
2022-11-25T02:46:00.412Z,100034.72
2022-11-25T02:51:55.999Z,100026.19
2022-11-25T02:54:43.727Z,100023.22
2022-11-25T02:57:31.400Z,100018.88
2022-11-25T03:00:19.524Z,100040.00
2022-11-25T03:03:07.527Z,100018.66
2022-11-25T03:05:55.276Z,100030.91
2022-11-25T03:08:45.513Z,100026.34
2022-11-25T03:11:52.638Z,100037.47
2022-11-25T03:14:41.215Z,100041.53
2022-11-25T03:17:28.904Z,100039.25
2022-11-25T03:20:16.946Z,100049.91
2022-11-25T03:23:05.353Z,100049.84
2022-11-25T03:25:53.132Z,100057.13
2022-11-25T03:28:40.792Z,100038.66
2022-11-25T03:31:30.512Z,100068.28
2022-11-25T03:34:18.333Z,100061.34
2022-11-25T03:37:06.287Z,100067.63
2022-11-25T03:39:54.228Z,100077.09
2022-11-25T03:42:44.978Z,100068.78
2022-11-25T03:45:33.159Z,100087.97
2022-11-25T03:48:24.470Z,100073.47
2022-11-25T03:51:12.329Z,100084.22
2022-11-25T03:54:00.092Z,100083.28
2022-11-25T03:56:47.866Z,100091.28
2022-11-25T03:59:35.598Z,100095.03
2022-11-25T04:02:23.552Z,100103.88
2022-11-25T04:05:11.633Z,100106.63
2022-11-25T04:07:59.710Z,100103.75
2022-11-25T04:10:50.153Z,100106.63
2022-11-25T04:13:40.885Z,100103.72
2022-11-25T04:16:28.715Z,100103.91
2022-11-25T04:19:16.659Z,100112.09
2022-11-25T04:22:04.517Z,100113.25
2022-11-25T04:24:55.780Z,100125.00
2022-11-25T04:27:46.403Z,100126.50
2022-11-25T04:30:37.511Z,100134.59
2022-11-25T04:33:25.241Z,100108.47
2022-11-25T04:36:13.942Z,100123.78
2022-11-25T04:39:01.644Z,100118.66
2022-11-25T04:41:49.863Z,100137.97
2022-11-25T04:44:38.003Z,100137.50
2022-11-25T04:47:26.839Z,100152.50
2022-11-25T04:50:21.352Z,100146.72
2022-11-25T04:53:23.197Z,100148.94
2022-11-25T04:56:17.899Z,100149.91
2022-11-25T04:59:28.561Z,100150.53
2022-11-25T05:02:19.308Z,100160.88
2022-11-25T05:05:15.278Z,100170.38
2022-11-25T05:08:03.215Z,100173.75
2022-11-25T05:10:51.251Z,100165.22
2022-11-25T05:13:43.420Z,100154.75
2022-11-25T05:16:31.123Z,100161.50
2022-11-25T05:19:21.127Z,100180.31
2022-11-25T05:22:15.328Z,100178.56
2022-11-25T05:25:06.389Z,100178.75
2022-11-25T05:27:59.052Z,100169.25
2022-11-25T05:30:46.830Z,100183.41
2022-11-25T05:33:35.033Z,100210.22
2022-11-25T05:36:33.461Z,100175.25
2022-11-25T05:39:28.860Z,100212.16
2022-11-25T05:42:52.850Z,100196.84
2022-11-25T05:45:41.212Z,100206.69
2022-11-25T05:48:30.529Z,100220.69
2022-11-25T05:51:18.168Z,100212.31
2022-11-25T05:54:06.153Z,100211.53
2022-11-25T05:56:59.206Z,100238.72
2022-11-25T06:00:13.887Z,100248.28
2022-11-25T06:03:10.491Z,100224.09
2022-11-25T06:05:59.243Z,100260.84
2022-11-25T06:08:47.800Z,100265.03
2022-11-25T06:11:35.665Z,100266.84
2022-11-25T06:14:23.368Z,100250.06
2022-11-25T06:17:11.808Z,100276.16
2022-11-25T06:20:08.500Z,100284.84
2022-11-25T06:22:58.808Z,100281.44
2022-11-25T06:25:52.456Z,100290.13
2022-11-25T06:28:40.318Z,100292.84
2022-11-25T06:31:28.260Z,100280.44
2022-11-25T06:34:42.145Z,100299.31
2022-11-25T06:37:39.734Z,100276.22
2022-11-25T06:40:27.581Z,100314.59
2022-11-25T06:43:15.256Z,100317.84
2022-11-25T06:46:07.738Z,100315.59
2022-11-25T06:48:55.595Z,100312.38
2022-11-25T06:51:43.202Z,100323.66
2022-11-25T06:54:31.184Z,100326.38
2022-11-25T06:57:20.090Z,100323.75
2022-11-25T07:00:08.472Z,100343.44
2022-11-25T07:02:56.120Z,100333.25
2022-11-25T07:05:43.763Z,100342.63
2022-11-25T07:08:34.157Z,100349.03
2022-11-25T07:11:30.734Z,100340.25
2022-11-25T07:14:18.509Z,100344.13
2022-11-25T07:17:11.576Z,100325.91
2022-11-25T07:19:59.852Z,100355.56
2022-11-25T07:22:47.558Z,100349.03
2022-11-25T07:25:35.256Z,100358.81
2022-11-25T07:28:22.910Z,100365.00
2022-11-25T07:31:24.198Z,100377.00
2022-11-25T07:34:14.661Z,100364.13
2022-11-25T07:37:02.280Z,100366.28
2022-11-25T07:39:49.965Z,100370.34
2022-11-25T07:42:40.698Z,100364.91
2022-11-25T07:45:33.152Z,100374.34
2022-11-25T07:48:29.224Z,100362.03
2022-11-25T07:51:24.419Z,100381.03
2022-11-25T07:54:13.294Z,100379.03
2022-11-25T07:57:01.039Z,100390.78
2022-11-25T07:59:48.741Z,100383.00
2022-11-25T08:02:36.504Z,100398.91
2022-11-25T08:05:24.286Z,100380.78
2022-11-25T08:08:12.155Z,100378.34
2022-11-25T08:10:59.832Z,100401.78
2022-11-25T08:13:48.119Z,100402.47
2022-11-25T08:16:35.931Z,100384.34
2022-11-25T08:19:28.450Z,100410.22
2022-11-25T08:22:18.914Z,100416.63
2022-11-25T08:25:07.083Z,100412.75
2022-11-25T08:27:54.753Z,100416.84
2022-11-25T08:30:42.600Z,100403.66
2022-11-25T08:33:30.185Z,100404.44
2022-11-25T08:36:18.551Z,100414.69
2022-11-25T08:39:29.073Z,100412.66
2022-11-25T08:42:15.527Z,100410.91
2022-11-25T08:45:04.387Z,100395.50
2022-11-25T08:47:52.143Z,100392.41
2022-11-25T08:50:47.322Z,100399.44
2022-11-25T08:53:35.083Z,100411.16
2022-11-25T08:56:26.215Z,100405.69
2022-11-25T08:59:14.340Z,100426.03
2022-11-25T09:02:02.703Z,100408.63
2022-11-25T09:04:52.750Z,100408.19
2022-11-25T09:07:40.754Z,100419.66
2022-11-25T09:10:30.119Z,100410.84
2022-11-25T09:13:17.864Z,100425.06
2022-11-25T09:16:06.333Z,100415.50
2022-11-25T09:18:57.010Z,100414.34
2022-11-25T09:21:44.892Z,100418.59
2022-11-25T09:24:32.556Z,100418.59
2022-11-25T09:27:20.397Z,100409.03
2022-11-25T09:30:08.616Z,100402.63
2022-11-25T09:32:58.700Z,100396.09
2022-11-25T09:35:47.668Z,100386.22
2022-11-25T09:38:38.907Z,100382.88
2022-11-25T09:41:52.418Z,100384.00
2022-11-25T09:45:09.051Z,100386.91
2022-11-25T09:48:08.798Z,100355.41
2022-11-25T09:51:15.064Z,100395.94
2022-11-25T09:54:32.805Z,100392.81
2022-11-25T09:57:27.341Z,100380.06
2022-11-25T10:00:22.058Z,100392.63
2022-11-25T10:03:37.975Z,100404.13
2022-11-25T10:06:38.558Z,100404.13
2022-11-25T10:09:29.326Z,100407.03
2022-11-25T10:12:26.519Z,100404.78
2022-11-25T10:15:21.075Z,100414.38
2022-11-25T10:18:21.762Z,100409.53
2022-11-25T10:21:11.872Z,100402.44
2022-11-25T10:23:59.644Z,100411.97
2022-11-25T10:26:58.418Z,100394.41
2022-11-25T10:29:56.128Z,100408.91
2022-11-25T10:32:50.202Z,100413.69
2022-11-25T10:36:00.905Z,100416.09
2022-11-25T10:38:59.702Z,100416.63
2022-11-25T10:41:51.449Z,100408.41
2022-11-25T10:44:41.491Z,100402.50
2022-11-25T10:47:34.210Z,100383.13
2022-11-25T10:50:43.024Z,100410.56
2022-11-25T10:53:32.947Z,100400.44
2022-11-25T10:56:20.729Z,100386.66
2022-11-25T10:59:27.327Z,100401.19
2022-11-25T11:02:35.872Z,100393.78
2022-11-25T11:05:30.156Z,100366.75
2022-11-25T11:08:27.460Z,100402.75
2022-11-25T11:11:20.958Z,100393.94
2022-11-25T11:14:08.588Z,100401.34
2022-11-25T11:16:57.559Z,100383.31
2022-11-25T11:20:05.690Z,100397.88
2022-11-25T11:23:09.425Z,100389.47
2022-11-25T11:26:09.874Z,100386.41
2022-11-25T11:28:59.032Z,100382.47
2022-11-25T11:31:58.605Z,100395.38
2022-11-25T11:34:49.158Z,100398.16
2022-11-25T11:37:44.430Z,100378.78
2022-11-25T11:40:52.012Z,100384.56
2022-11-25T11:44:09.008Z,100396.16
2022-11-25T11:47:11.553Z,100378.06
2022-11-25T11:50:05.266Z,100395.03
2022-11-25T11:52:55.630Z,100404.47
2022-11-25T11:56:26.816Z,100387.38
2022-11-25T11:59:47.008Z,100392.81
2022-11-25T12:03:13.325Z,100397.59
2022-11-25T12:06:08.037Z,100408.91
2022-11-25T12:09:03.300Z,100415.47
2022-11-25T12:11:56.062Z,100406.00
2022-11-25T12:14:49.806Z,100403.47
2022-11-25T12:17:47.398Z,100409.41
2022-11-25T12:20:57.949Z,100407.09
2022-11-25T12:23:55.297Z,100409.50
2022-11-25T12:27:02.706Z,100405.72
2022-11-25T12:29:50.305Z,100414.91
2022-11-25T12:33:20.429Z,100413.53
2022-11-25T12:36:13.748Z,100421.56
2022-11-25T12:39:19.732Z,100412.53
2022-11-25T12:42:17.031Z,100398.31
2022-11-25T12:45:23.215Z,100417.75
2022-11-25T12:48:13.111Z,100392.22
2022-11-25T12:51:13.971Z,100417.84
2022-11-25T12:54:07.583Z,100423.25
2022-11-25T12:57:07.514Z,100416.84
2022-11-25T13:00:17.502Z,100412.38
2022-11-25T13:03:17.443Z,100413.03
2022-11-25T13:06:24.358Z,100424.91
2022-11-25T13:09:37.305Z,100412.69
2022-11-25T13:12:55.984Z,100416.97
2022-11-25T13:15:49.345Z,100414.22
2022-11-25T13:18:42.274Z,100420.31
2022-11-25T13:21:29.978Z,100410.22
2022-11-25T13:24:40.977Z,100423.53
2022-11-25T13:27:52.634Z,100403.31
2022-11-25T13:30:40.382Z,100420.75
2022-11-25T13:33:28.060Z,100427.69
2022-11-25T13:36:21.949Z,100421.56
2022-11-25T13:39:18.060Z,100409.94
2022-11-25T13:42:26.275Z,100418.00
2022-11-25T13:45:56.451Z,100412.44
2022-11-25T13:48:46.992Z,100429.69
2022-11-25T13:51:34.874Z,100412.78
2022-11-25T13:54:37.486Z,100425.75
2022-11-25T13:57:37.061Z,100429.59
2022-11-25T14:00:35.303Z,100422.13
2022-11-25T14:03:23.099Z,100443.59
2022-11-25T14:06:52.908Z,100439.00
2022-11-25T14:09:44.061Z,100446.63
2022-11-25T14:12:43.692Z,100437.06
2022-11-25T14:16:01.104Z,100448.66
2022-11-25T14:19:43.256Z,100455.59
2022-11-25T14:22:37.336Z,100468.03
2022-11-25T14:25:45.104Z,100423.81
2022-11-25T14:28:48.964Z,100470.16
2022-11-25T14:31:52.099Z,100449.84
2022-11-25T14:35:02.396Z,100423.00
2022-11-25T14:38:07.610Z,100468.91
2022-11-25T14:41:01.858Z,100481.19
2022-11-25T14:43:58.461Z,100480.94
2022-11-25T14:46:58.585Z,100465.97
2022-11-25T14:53:09.271Z,100470.31
2022-11-25T14:56:01.182Z,100494.38
2022-11-25T14:58:54.578Z,100493.13
2022-11-25T15:01:54.292Z,100476.81
2022-11-25T15:04:42.187Z,100499.78
2022-11-25T15:07:31.483Z,100498.31
2022-11-25T15:11:02.288Z,100501.72
2022-11-25T15:13:58.294Z,100518.34
2022-11-25T15:16:46.513Z,100513.84
2022-11-25T15:19:36.408Z,100531.28
2022-11-25T15:22:24.862Z,100521.91
2022-11-25T15:25:16.007Z,100509.78
2022-11-25T15:28:18.885Z,100521.09
2022-11-25T15:31:17.637Z,100515.72
2022-11-25T15:34:13.874Z,100527.66
2022-11-25T15:37:05.011Z,100524.06
2022-11-25T15:40:29.996Z,100529.28
2022-11-25T15:43:30.299Z,100529.88
2022-11-25T15:46:18.785Z,100520.91
2022-11-25T15:49:07.909Z,100538.91
2022-11-25T15:52:14.662Z,100531.19
2022-11-25T15:55:08.342Z,100529.38
2022-11-25T15:58:03.365Z,100532.16
2022-11-25T16:01:24.203Z,100538.88
2022-11-25T16:04:21.581Z,100538.25
2022-11-25T16:07:23.100Z,100544.69
2022-11-25T16:10:34.177Z,100543.94
2022-11-25T16:13:25.976Z,100555.91
2022-11-25T16:16:31.732Z,100556.88
2022-11-25T16:19:37.868Z,100559.09
2022-11-25T16:22:32.431Z,100564.25
2022-11-25T16:25:20.180Z,100529.97
2022-11-25T16:28:21.241Z,100567.38
2022-11-25T16:31:16.646Z,100564.50
2022-11-25T16:34:15.645Z,100571.38
2022-11-25T16:37:04.052Z,100558.06
2022-11-25T16:39:51.806Z,100576.34
2022-11-25T16:42:42.854Z,100569.56
2022-11-25T16:45:30.780Z,100570.53
2022-11-25T16:48:27.081Z,100576.75
2022-11-25T16:51:20.472Z,100582.41
2022-11-25T16:54:08.240Z,100584.66
2022-11-25T16:56:56.023Z,100596.78
2022-11-25T16:59:45.074Z,100589.88
2022-11-25T17:02:33.594Z,100600.88
2022-11-25T17:05:25.893Z,100602.00
2022-11-25T17:08:16.484Z,100612.38
2022-11-25T17:11:04.364Z,100599.97
2022-11-25T17:13:53.799Z,100618.03
2022-11-25T17:16:43.218Z,100620.66
2022-11-25T17:19:31.436Z,100614.72
2022-11-25T17:22:22.418Z,100620.50
2022-11-25T17:25:12.866Z,100626.16
2022-11-25T17:28:00.932Z,100629.72
2022-11-25T17:30:49.107Z,100622.72
2022-11-25T17:33:36.989Z,100634.28
2022-11-25T17:36:26.456Z,100612.88
2022-11-25T17:39:15.296Z,100636.00
2022-11-25T17:42:04.359Z,100633.56
2022-11-25T17:44:54.254Z,100641.56
2022-11-25T17:47:42.603Z,100642.97
2022-11-25T17:50:30.365Z,100662.59
2022-11-25T17:53:18.147Z,100652.91
2022-11-25T17:56:28.650Z,100631.00
2022-11-25T17:59:25.971Z,100658.44
2022-11-25T18:02:22.207Z,100647.72
2022-11-25T18:05:15.996Z,100637.75
2022-11-25T18:08:03.866Z,100652.66
2022-11-25T18:10:51.606Z,100665.38
2022-11-25T18:13:40.869Z,100662.91
2022-11-25T18:16:31.284Z,100653.75
2022-11-25T18:19:19.185Z,100659.41
2022-11-25T18:22:13.475Z,100667.97
2022-11-25T18:25:05.211Z,100649.41
2022-11-25T18:27:57.869Z,100673.66
2022-11-25T18:30:46.437Z,100655.53
2022-11-25T18:33:34.843Z,100666.25
2022-11-25T18:36:25.584Z,100662.94
2022-11-25T18:39:14.295Z,100676.84
2022-11-25T18:42:03.778Z,100676.19
2022-11-25T18:44:52.116Z,100671.25
2022-11-25T18:47:39.743Z,100690.19
2022-11-25T18:50:28.408Z,100687.09
2022-11-25T18:53:20.959Z,100678.78
2022-11-25T18:56:17.603Z,100665.63
2022-11-25T18:59:14.385Z,100703.41
2022-11-25T19:02:02.357Z,100702.53
2022-11-25T19:04:50.186Z,100707.53
2022-11-25T19:07:37.911Z,100698.81
2022-11-25T19:10:29.792Z,100702.09
2022-11-25T19:13:27.577Z,100709.09
2022-11-25T19:16:18.530Z,100686.22
2022-11-25T19:19:06.838Z,100697.59
2022-11-25T19:21:54.562Z,100707.00
2022-11-25T19:24:42.898Z,100703.97
2022-11-25T19:27:36.419Z,100728.47
2022-11-25T19:30:27.641Z,100675.78
2022-11-25T19:33:40.603Z,100730.66
2022-11-25T19:36:32.110Z,100744.00
2022-11-25T19:39:22.424Z,100757.59
2022-11-25T19:42:10.922Z,100746.72
2022-11-25T19:45:03.749Z,100740.50
2022-11-25T19:47:52.410Z,100755.72
2022-11-25T19:50:40.738Z,100753.31
2022-11-25T19:53:33.561Z,100744.72
2022-11-25T19:56:27.323Z,100766.34
2022-11-25T19:59:15.084Z,100761.31
2022-11-25T20:02:03.001Z,100765.63
2022-11-25T20:04:54.346Z,100753.00
2022-11-25T20:07:44.114Z,100766.84
2022-11-25T20:10:33.096Z,100765.25
2022-11-25T20:13:23.298Z,100772.59
2022-11-25T20:16:24.235Z,100777.41
2022-11-25T20:19:18.254Z,100784.94
2022-11-25T20:22:07.081Z,100769.28
2022-11-25T20:25:00.612Z,100787.28
2022-11-25T20:27:48.478Z,100786.84
2022-11-25T20:30:36.169Z,100760.28
2022-11-25T20:33:25.030Z,100797.25
2022-11-25T20:36:17.268Z,100795.34
2022-11-25T20:39:04.858Z,100800.28
2022-11-25T20:41:53.180Z,100764.50
2022-11-25T20:44:41.533Z,100785.38
2022-11-25T20:47:30.252Z,100759.63
2022-11-25T20:50:19.904Z,100789.44
2022-11-25T20:53:15.733Z,100780.28
2022-11-25T20:56:03.710Z,100789.34
2022-11-25T20:58:51.902Z,100807.59
2022-11-25T21:01:39.667Z,100786.72
2022-11-25T21:04:27.467Z,100804.91
2022-11-25T21:07:16.062Z,100816.59
2022-11-25T21:10:16.610Z,100816.03
2022-11-25T21:13:09.761Z,100826.69
2022-11-25T21:15:57.955Z,100823.13
2022-11-25T21:18:46.122Z,100823.97
2022-11-25T21:21:36.474Z,100825.94
2022-11-25T21:24:45.306Z,100829.22
2022-11-25T21:27:34.268Z,100812.94
2022-11-25T21:30:25.005Z,100823.03
2022-11-25T21:33:13.303Z,100834.22
2022-11-25T21:36:01.110Z,100834.50
2022-11-25T21:38:51.830Z,100835.34
2022-11-25T21:41:39.532Z,100840.47
2022-11-25T21:44:41.457Z,100848.59
2022-11-25T21:47:30.284Z,100830.69
2022-11-25T21:50:19.603Z,100868.72
2022-11-25T21:53:07.598Z,100865.19
2022-11-25T21:55:57.892Z,100862.19
2022-11-25T21:58:48.191Z,100861.66
2022-11-25T22:01:35.982Z,100862.25
2022-11-25T22:04:24.727Z,100867.16
2022-11-25T22:07:12.744Z,100874.75
2022-11-25T22:10:00.589Z,100874.22
2022-11-25T22:12:48.414Z,100866.09
2022-11-25T22:15:36.578Z,100862.25
2022-11-25T22:18:30.228Z,100876.03
2022-11-25T22:21:17.947Z,100823.91
2022-11-25T22:24:14.567Z,100881.25
2022-11-25T22:27:03.618Z,100870.38
2022-11-25T22:29:52.160Z,100852.13
2022-11-25T22:32:42.392Z,100891.28
2022-11-25T22:35:32.318Z,100853.84
2022-11-25T22:38:20.043Z,100874.22
2022-11-25T22:41:10.527Z,100890.28
2022-11-25T22:44:00.648Z,100871.00
2022-11-25T22:46:49.949Z,100885.72
2022-11-25T22:49:44.607Z,100881.34
2022-11-25T22:52:34.851Z,100858.31
2022-11-25T22:55:30.926Z,100887.63
2022-11-25T22:58:18.699Z,100883.28
2022-11-25T23:01:06.529Z,100874.38
2022-11-25T23:03:54.244Z,100903.97
2022-11-25T23:06:42.000Z,100910.22
2022-11-25T23:09:29.756Z,100911.84
2022-11-25T23:12:18.363Z,100909.69
2022-11-25T23:15:06.571Z,100913.22
2022-11-25T23:17:58.035Z,100909.69
2022-11-25T23:20:45.791Z,100899.34
2022-11-25T23:23:33.590Z,100913.50
2022-11-25T23:26:21.802Z,100905.31
2022-11-25T23:29:09.595Z,100900.19
2022-11-25T23:31:59.798Z,100894.22
2022-11-25T23:34:50.297Z,100901.28
2022-11-25T23:37:38.017Z,100887.94
2022-11-25T23:40:26.977Z,100901.28
2022-11-25T23:43:15.934Z,100904.25
2022-11-25T23:46:03.810Z,100881.72
2022-11-25T23:49:07.480Z,100897.75
